Monrovia, California
Current Conditions -  °F | °C
As of 10:45 AM on Monday 20 Oct 2014 (Local Time) from KEMT Reporting Station
Haze Haze  
Wind Chill: 66°   Ceiling: 1500
Heat Index: 66°   Visibility: 5mi
Dew Point: 59°   Wind: 0mph
Humidity: 78%   Direction: NA
Pressure: 29.98"   Gusts: NA
Location:  34.15°N, 117.99°W
Report Text: KEMT 201745Z 00000KT 5SM HZ OVC015 19/15 A2998
Loading
Personal Weather Stations






























Interactive Weather Map
Tropical Storm Tracking
New forecast layout! Learn more

10-Day Weather Forecast

Advertisements
Track Severe Weather on mobile